Time;durP1;ratioP1;P1;durP2;ratioP2;P2;SDS_P1;SDS_P2;PMS_P1;PMS_P2;Temp;Humidity;BMP_temperature;BMP_pressure;BME280_temperature;BME280_humidity;BME280_pressure;Samples;Min_cycle;Max_cycle;Signal;HPM_P1;HPM_P2
2022/06/23 00:01:24;;;;;;;25.70;6.40;;;;;;;-145.69;100.00;70871.13;5055198;28;20211;-78
2022/06/23 00:03:55;;;;;;;19.92;6.25;;;;;;;-145.69;100.00;70875.13;5055518;28;20203;-78
2022/06/23 00:06:42;;;;;;;19.55;6.80;;;;;;;-145.69;100.00;70879.09;5055326;28;20646;-79
2022/06/23 00:09:37;;;;;;;24.05;5.68;;;;;;;-145.69;100.00;70879.09;5055612;28;20203;-79
2022/06/23 00:12:21;;;;;;;19.33;5.00;;;;;;;-145.69;100.00;70893.03;5055289;28;20196;-78
2022/06/23 00:14:50;;;;;;;14.43;4.75;;;;;;;-145.69;100.00;70906.94;5055560;28;20203;-78
2022/06/23 00:17:22;;;;;;;15.75;5.78;;;;;;;-145.69;100.00;70912.91;5055327;28;20235;-79
2022/06/23 00:19:49;;;;;;;19.27;5.50;;;;;;;-145.69;100.00;70916.91;5055182;28;20662;-78
2022/06/23 00:22:23;;;;;;;15.93;5.47;;;;;;;-145.69;100.00;70910.94;5055076;28;20326;-78
2022/06/23 00:24:55;;;;;;;30.40;5.68;;;;;;;-145.69;100.00;70916.91;5067330;28;20193;-78
2022/06/23 00:27:28;;;;;;;12.15;5.13;;;;;;;-145.69;100.00;70926.84;5075342;28;20203;-78
2022/06/23 00:29:59;;;;;;;16.48;4.30;;;;;;;-145.69;100.00;70944.75;5074192;28;20217;-78
2022/06/23 00:32:29;;;;;;;18.55;5.25;;;;;;;-145.69;100.00;70944.75;5075069;28;20206;-78
2022/06/23 00:35:01;;;;;;;13.75;4.43;;;;;;;-145.69;100.00;70964.66;5075063;28;20203;-78
2022/06/23 00:37:28;;;;;;;12.38;4.45;;;;;;;-145.69;100.00;70960.66;5074790;28;20333;-78
2022/06/23 00:39:57;;;;;;;25.52;5.57;;;;;;;-145.69;100.00;70960.66;5075341;28;20199;-78
2022/06/23 00:42:28;;;;;;;19.10;5.20;;;;;;;-145.69;100.00;70968.63;5075075;28;20198;-78
2022/06/23 00:45:00;;;;;;;18.80;4.72;;;;;;;-145.69;100.00;70962.66;5074745;28;20202;-77
2022/06/23 00:47:36;;;;;;;15.23;5.67;;;;;;;-145.69;100.00;70974.59;5073757;28;20626;-77
2022/06/23 00:50:16;;;;;;;21.10;5.72;;;;;;;-145.69;100.00;70980.56;5074231;28;20449;-77
2022/06/23 00:52:48;;;;;;;14.85;5.03;;;;;;;-145.69;100.00;70996.47;5073820;28;20194;-77
2022/06/23 00:55:41;;;;;;;18.50;4.70;;;;;;;-145.69;100.00;70992.50;5074660;28;20438;-78
2022/06/23 00:58:24;;;;;;;19.45;4.82;;;;;;;-145.69;100.00;70996.47;5074361;28;20707;-77
2022/06/23 01:00:55;;;;;;;20.00;5.57;;;;;;;-145.69;100.00;71000.47;5074361;28;20195;-77
2022/06/23 01:03:34;;;;;;;17.00;4.65;;;;;;;-145.69;100.00;70996.47;5074282;28;20202;-77
2022/06/23 01:06:13;;;;;;;11.75;4.80;;;;;;;-145.69;100.00;70996.47;5074339;28;20260;-77
2022/06/23 01:08:46;;;;;;;20.02;4.95;;;;;;;-145.69;100.00;71000.47;5073973;28;20550;-77
2022/06/23 01:11:21;;;;;;;12.98;4.35;;;;;;;-145.69;100.00;71014.38;5074221;28;20248;-78
2022/06/23 01:13:59;;;;;;;10.98;4.50;;;;;;;-145.69;100.00;71010.41;5074176;28;20198;-78
2022/06/23 01:16:32;;;;;;;19.02;4.85;;;;;;;-145.69;100.00;70998.47;5074311;28;20206;-77
2022/06/23 01:19:06;;;;;;;14.82;5.30;;;;;;;-145.69;100.00;70996.47;5073607;28;20689;-77
2022/06/23 01:21:42;;;;;;;18.63;5.22;;;;;;;-145.69;100.00;71006.44;5071098;28;20191;-77
2022/06/23 01:24:24;;;;;;;15.38;5.07;;;;;;;-145.69;100.00;71006.44;5054859;28;20237;-77
2022/06/23 01:27:03;;;;;;;16.95;5.22;;;;;;;-145.69;100.00;71016.38;5054324;28;20196;-77
2022/06/23 01:29:39;;;;;;;23.75;4.72;;;;;;;-145.69;100.00;71026.31;5054825;28;20729;-78
2022/06/23 01:32:14;;;;;;;14.40;4.97;;;;;;;-145.69;100.00;71016.38;5053979;28;20209;-78
2022/06/23 01:34:48;;;;;;;16.17;5.25;;;;;;;-145.69;100.00;71016.38;5053913;28;20199;-77
2022/06/23 01:37:23;;;;;;;11.15;5.57;;;;;;;-145.69;100.00;71012.41;5053650;28;20685;-77
2022/06/23 01:39:57;;;;;;;14.30;5.47;;;;;;;-145.69;100.00;71014.38;5053164;28;20199;-78
2022/06/23 01:42:34;;;;;;;21.25;5.50;;;;;;;-145.69;100.00;71020.34;5053592;28;20281;-77
2022/06/23 01:45:07;;;;;;;12.32;4.57;;;;;;;-145.69;100.00;71038.25;5053615;28;20199;-78
2022/06/23 01:47:43;;;;;;;19.23;4.57;;;;;;;-145.69;100.00;71052.19;5053775;28;20204;-78
2022/06/23 01:50:30;;;;;;;15.95;4.05;;;;;;;-145.69;100.00;71064.13;5053422;28;20200;-78
2022/06/23 01:53:12;;;;;;;16.58;5.07;;;;;;;-145.69;100.00;71052.19;5068447;28;20194;-79
2022/06/23 01:56:10;;;;;;;19.52;5.50;;;;;;;-145.69;100.00;71038.25;5073579;28;20581;-78
2022/06/23 01:58:51;;;;;;;21.85;5.80;;;;;;;-145.69;100.00;71020.34;5071647;28;20321;-78
2022/06/23 02:01:24;;;;;;;16.98;5.93;;;;;;;-145.69;100.00;71010.41;5070010;28;20206;-79
2022/06/23 02:03:57;;;;;;;20.25;5.32;;;;;;;-145.69;100.00;71008.41;5058748;28;20198;-78
2022/06/23 02:06:30;;;;;;;19.08;5.32;;;;;;;-145.69;100.00;71014.38;5068735;28;20310;-78
2022/06/23 02:09:07;;;;;;;19.17;5.03;;;;;;;-145.69;100.00;71020.34;5073281;28;20236;-78
2022/06/23 02:11:40;;;;;;;9.77;4.43;;;;;;;-145.69;100.00;71032.28;5073032;28;20688;-78
2022/06/23 02:14:18;;;;;;;12.80;4.13;;;;;;;-145.69;100.00;71044.22;5072970;28;20688;-78
2022/06/23 02:16:53;;;;;;;8.82;4.13;;;;;;;-145.69;100.00;71056.16;5073007;28;20194;-78
2022/06/23 02:19:29;;;;;;;21.65;4.85;;;;;;;-145.69;100.00;71060.16;5072821;28;20226;-79
2022/06/23 02:22:06;;;;;;;9.98;4.13;;;;;;;-145.69;100.00;71072.09;5072296;28;20227;-78
2022/06/23 02:24:39;;;;;;;13.68;3.95;;;;;;;-145.69;100.00;71076.06;5072756;28;20191;-78
2022/06/23 02:27:14;;;;;;;16.27;4.72;;;;;;;-145.69;100.00;71064.13;5072835;28;20203;-78
2022/06/23 02:29:47;;;;;;;15.45;4.78;;;;;;;-145.69;100.00;71068.13;5073076;28;20210;-78
2022/06/23 02:32:20;;;;;;;10.57;4.32;;;;;;;-145.69;100.00;71066.13;5072988;28;20557;-78
2022/06/23 02:34:54;;;;;;;10.77;4.80;;;;;;;-145.69;100.00;71068.13;5072167;28;20566;-78
2022/06/23 02:37:54;;;;;;;11.93;4.45;;;;;;;-145.69;100.00;71072.09;5072669;28;20619;-79
2022/06/23 02:40:29;;;;;;;17.77;5.93;;;;;;;-145.69;100.00;71072.09;5072958;28;20630;-78
2022/06/23 02:43:04;;;;;;;18.33;5.40;;;;;;;-145.69;100.00;71068.13;5072915;28;20201;-79
2022/06/23 02:46:00;;;;;;;17.27;4.63;;;;;;;-145.69;100.00;71076.06;5072684;28;20628;-78
2022/06/23 02:48:44;;;;;;;21.52;5.20;;;;;;;-145.69;100.00;71076.06;5057489;28;20672;-78
2022/06/23 02:51:26;;;;;;;13.63;4.90;;;;;;;-145.69;100.00;71080.06;5072702;28;20676;-78
2022/06/23 02:54:30;;;;;;;26.33;5.38;;;;;;;-145.69;100.00;71064.13;5073512;28;20199;-78
2022/06/23 02:57:15;;;;;;;21.30;4.90;;;;;;;-145.69;100.00;71074.09;5075415;28;20202;-78
2022/06/23 02:59:50;;;;;;;20.92;5.45;;;;;;;-145.69;100.00;71068.13;5075379;28;20230;-78
2022/06/23 03:02:22;;;;;;;16.67;5.13;;;;;;;-145.69;100.00;71074.09;5073956;28;20205;-78
2022/06/23 03:04:53;;;;;;;9.70;4.18;;;;;;;-145.69;100.00;71084.03;5076824;28;20285;-78
2022/06/23 03:07:26;;;;;;;18.67;5.13;;;;;;;-145.69;100.00;71076.06;5076665;28;20198;-78
2022/06/23 03:10:00;;;;;;;13.15;4.57;;;;;;;-145.69;100.00;71080.06;5076628;28;20209;-77
2022/06/23 03:12:38;;;;;;;13.95;4.95;;;;;;;-145.69;100.00;71080.06;5076488;28;20557;-78
2022/06/23 03:15:12;;;;;;;10.90;4.50;;;;;;;-145.69;100.00;71084.03;5076898;28;20203;-77
2022/06/23 03:17:45;;;;;;;15.45;4.80;;;;;;;-145.69;100.00;71092.00;5076550;28;20202;-77
2022/06/23 03:20:27;;;;;;;17.50;4.57;;;;;;;-145.69;100.00;71092.00;5076352;28;20298;-78
2022/06/23 03:23:01;;;;;;;10.02;4.57;;;;;;;-145.69;100.00;71111.88;5075607;28;20234;-78
2022/06/23 03:25:39;;;;;;;11.98;4.38;;;;;;;-145.69;100.00;71119.84;5076255;28;20198;-77
2022/06/23 03:28:13;;;;;;;9.52;4.00;;;;;;;-145.69;100.00;71129.78;5076277;28;20206;-78
2022/06/23 03:30:49;;;;;;;13.15;3.95;;;;;;;-145.69;100.00;71121.84;5076204;28;20201;-77
2022/06/23 03:33:21;;;;;;;17.75;4.22;;;;;;;-145.69;100.00;71117.84;5076012;28;20241;-77
2022/06/23 03:35:54;;;;;;;16.40;4.10;;;;;;;-145.69;100.00;71131.78;5076319;28;20206;-77
2022/06/23 03:41:36;;;;;;;9.02;4.18;;;;;;;-145.69;100.00;71131.78;5076135;28;20226;-77
2022/06/23 03:44:16;;;;;;;12.80;4.25;;;;;;;-145.69;100.00;71119.84;5075996;28;20202;-77
2022/06/23 03:46:49;;;;;;;13.88;4.68;;;;;;;-145.69;100.00;71111.88;5075920;28;20207;-77
2022/06/23 03:49:23;;;;;;;9.80;4.53;;;;;;;-145.69;100.00;71117.84;5075859;28;20294;-77
2022/06/23 03:51:56;;;;;;;16.13;5.22;;;;;;;-145.69;100.00;71105.91;5075300;28;20194;-76
2022/06/23 03:54:30;;;;;;;19.30;5.03;;;;;;;-145.69;100.00;71103.94;5075764;28;20221;-77
2022/06/23 03:56:59;;;;;;;14.05;5.82;;;;;;;-145.69;100.00;71099.94;5075725;28;20203;-78
2022/06/23 03:59:30;;;;;;;13.55;4.85;;;;;;;-145.69;100.00;71103.94;5068663;28;20226;-78
2022/06/23 04:02:01;;;;;;;14.10;4.57;;;;;;;-145.69;100.00;71105.91;5075468;28;20272;-77
2022/06/23 04:04:45;;;;;;;15.02;5.03;;;;;;;-145.69;100.00;71107.91;5074437;28;20206;-78
2022/06/23 04:07:49;;;;;;;17.30;4.72;;;;;;;-145.69;100.00;71115.88;5075489;28;20199;-77
2022/06/23 04:10:24;;;;;;;12.60;4.35;;;;;;;-145.69;100.00;71127.81;5073783;28;20199;-77
2022/06/23 04:12:57;;;;;;;12.52;4.88;;;;;;;-145.69;100.00;71127.81;5075056;28;20202;-77
2022/06/23 04:15:31;;;;;;;15.85;5.20;;;;;;;-145.69;100.00;71123.81;5075349;28;20684;-78
2022/06/23 04:18:04;;;;;;;12.68;4.05;;;;;;;-145.69;100.00;71131.78;5074983;28;20251;-77
2022/06/23 04:20:39;;;;;;;11.27;4.90;;;;;;;-145.69;100.00;71123.81;5075313;28;20195;-78
2022/06/23 04:23:16;;;;;;;18.50;4.60;;;;;;;-145.69;100.00;71125.81;5075309;28;20238;-77
2022/06/23 04:25:48;;;;;;;11.05;4.55;;;;;;;-145.69;100.00;71115.88;5075119;28;20210;-77
2022/06/23 04:28:23;;;;;;;14.07;5.45;;;;;;;-145.69;100.00;71101.94;5075178;28;20203;-78
2022/06/23 04:30:52;;;;;;;11.05;4.72;;;;;;;-145.69;100.00;71099.94;5075141;28;20465;-78
2022/06/23 04:33:24;;;;;;;8.93;4.50;;;;;;;-145.69;100.00;71093.97;5075170;28;20199;-78
2022/06/23 04:35:56;;;;;;;15.82;4.88;;;;;;;-145.69;100.00;71090.00;5075084;28;20256;-78
2022/06/23 04:38:31;;;;;;;12.13;4.53;;;;;;;-145.69;100.00;71074.09;5075365;28;20223;-78
2022/06/23 04:41:04;;;;;;;11.65;5.15;;;;;;;-145.69;100.00;71060.16;5075048;28;20294;-78
2022/06/23 04:43:38;;;;;;;16.52;5.57;;;;;;;-145.69;100.00;71056.16;5074804;28;20199;-78
2022/06/23 04:46:17;;;;;;;12.50;5.32;;;;;;;-145.69;100.00;71042.25;5074996;28;20206;-77
2022/06/23 04:48:54;;;;;;;8.52;4.82;;;;;;;-145.69;100.00;71036.28;5074698;28;20205;-78
2022/06/23 04:51:29;;;;;;;16.60;4.43;;;;;;;-145.69;100.00;71036.28;5074316;28;20199;-78
2022/06/23 04:54:03;;;;;;;12.05;3.88;;;;;;;-145.69;100.00;71044.22;5073963;28;20545;-79
2022/06/23 04:56:45;;;;;;;13.05;4.30;;;;;;;-145.69;100.00;71044.22;5074793;28;20285;-77
2022/06/23 04:59:27;;;;;;;11.52;3.65;;;;;;;-145.69;100.00;71028.31;5074418;28;20222;-78
2022/06/23 05:02:00;;;;;;;14.57;4.57;;;;;;;-145.69;100.00;71024.34;5074344;28;20203;-78
2022/06/23 05:04:31;;;;;;;17.35;5.10;;;;;;;-145.69;100.00;71008.41;5074145;28;20210;-78
2022/06/23 05:07:02;;;;;;;17.38;4.82;;;;;;;-145.69;100.00;70990.50;5074420;28;20202;-78
2022/06/23 05:09:34;;;;;;;12.98;4.93;;;;;;;-145.69;100.00;70976.59;5074220;28;20206;-77
2022/06/23 05:12:04;;;;;;;10.50;4.88;;;;;;;-145.69;100.00;70968.63;5074309;28;20194;-77
2022/06/23 05:14:42;;;;;;;13.52;4.68;;;;;;;-145.69;100.00;70960.66;5073898;28;20199;-77
2022/06/23 05:17:14;;;;;;;12.40;4.25;;;;;;;-145.69;100.00;70938.78;5074254;28;20248;-77
2022/06/23 05:19:42;;;;;;;12.40;4.30;;;;;;;-145.69;100.00;70924.84;5072018;28;20241;-77
2022/06/23 05:22:20;;;;;;;9.85;4.75;;;;;;;-145.69;100.00;70916.91;5073564;28;20222;-77
2022/06/23 05:24:51;;;;;;;8.90;3.88;;;;;;;-145.69;100.00;70900.97;5074113;28;20276;-77
2022/06/23 05:27:23;;;;;;;9.15;4.32;;;;;;;-145.69;100.00;70891.03;5074015;28;20199;-77
2022/06/23 05:29:59;;;;;;;10.77;4.03;;;;;;;-145.69;100.00;70859.19;5072921;28;20442;-77
2022/06/23 05:32:33;;;;;;;13.80;4.30;;;;;;;-145.69;100.00;70843.28;5073933;28;20206;-78
2022/06/23 05:35:05;;;;;;;13.85;3.45;;;;;;;-145.69;100.00;70817.41;5073968;28;20215;-77
2022/06/23 05:37:43;;;;;;;11.98;4.05;;;;;;;-145.69;100.00;70795.53;5073696;28;20673;-77
2022/06/23 05:40:21;;;;;;;6.20;3.08;;;;;;;-145.69;100.00;70749.78;5073590;28;20296;-77
2022/06/23 05:42:50;;;;;;;8.55;3.70;;;;;;;-145.69;100.00;70692.06;5073649;28;20206;-77
2022/06/23 05:45:21;;;;;;;11.38;3.03;;;;;;;-145.69;100.00;70634.38;5072900;28;20206;-78
2022/06/23 05:47:53;;;;;;;7.85;2.53;;;;;;;-145.69;100.00;70562.75;5073423;28;20673;-78
2022/06/23 05:50:25;;;;;;;8.07;2.75;;;;;;;-145.69;100.00;70515.00;5066338;28;20294;-78
2022/06/23 05:53:01;;;;;;;5.93;2.08;;;;;;;-145.69;100.00;70427.47;5070531;28;20733;-78
2022/06/23 05:55:43;;;;;;;6.68;1.90;;;;;;;-145.69;100.00;70345.91;5073601;28;20255;-79
2022/06/23 05:58:20;;;;;;;6.70;2.00;;;;;;;-145.69;100.00;70296.19;5073439;28;20223;-79
2022/06/23 06:00:51;;;;;;;8.27;1.73;;;;;;;-145.69;100.00;70212.63;5073343;28;20234;-79
2022/06/23 06:03:25;;;;;;;8.35;1.70;;;;;;;-145.69;100.00;70200.69;5073031;28;20437;-79
2022/06/23 06:05:55;;;;;;;10.32;2.28;;;;;;;-145.69;100.00;70160.91;5073408;28;20696;-79
2022/06/23 06:08:26;;;;;;;5.28;1.73;;;;;;;-145.69;95.66;70202.69;5073335;28;20569;-79
2022/06/23 06:10:54;;;;;;;11.88;2.17;;;;;;;-145.69;100.00;70194.72;5072591;28;20199;-79
2022/06/23 06:13:26;;;;;;;6.35;1.67;;;;;;;-145.69;98.42;70176.81;5073232;28;20199;-79
2022/06/23 06:15:54;;;;;;;6.85;1.42;;;;;;;-145.69;96.36;70194.72;5073149;28;20230;-79
2022/06/23 06:18:26;;;;;;;5.25;1.67;;;;;;;-145.69;98.06;70256.41;5073270;28;20207;-79
2022/06/23 06:20:55;;;;;;;9.75;1.50;;;;;;;-145.69;94.67;70228.53;5072986;28;20207;-79
2022/06/23 06:23:31;;;;;;;8.10;1.65;;;;;;;-145.69;92.25;70230.53;5072944;28;20230;-79
2022/06/23 06:25:59;;;;;;;6.55;1.85;;;;;;;-145.69;87.40;70186.78;5072705;28;20198;-79
2022/06/23 06:28:30;;;;;;;8.13;1.60;;;;;;;-145.69;82.82;70182.78;5072702;28;20199;-79
2022/06/23 06:31:04;;;;;;;5.88;1.85;;;;;;;-145.69;83.23;70182.78;5073191;28;20202;-79
2022/06/23 06:33:39;;;;;;;7.15;1.52;;;;;;;-145.69;83.51;70164.88;5073157;28;20209;-79
2022/06/23 06:36:23;;;;;;;8.90;1.40;;;;;;;-145.69;79.54;70160.91;5072998;28;20198;-79
2022/06/23 06:38:50;;;;;;;5.97;1.60;;;;;;;-145.69;83.24;70131.06;5072800;28;20657;-79
2022/06/23 06:41:18;;;;;;;4.60;1.50;;;;;;;-145.69;81.59;70145.00;5073052;28;20255;-79
2022/06/23 06:43:44;;;;;;;6.43;1.45;;;;;;;-145.69;79.29;70156.94;5073016;28;20210;-79
2022/06/23 06:46:11;;;;;;;6.47;1.58;;;;;;;-145.69;78.36;70109.19;5072965;28;20245;-79
2022/06/23 06:48:43;;;;;;;4.88;1.27;;;;;;;-145.69;77.55;70152.97;5072889;28;20570;-79
2022/06/23 06:51:14;;;;;;;4.60;1.20;;;;;;;-145.69;78.04;70143.00;5072396;28;20202;-79
2022/06/23 06:53:43;;;;;;;10.05;2.03;;;;;;;-145.69;77.86;70172.84;5072841;28;20268;-78
2022/06/23 06:56:17;;;;;;;6.93;1.60;;;;;;;-145.69;75.40;70152.97;5072834;28;20546;-79
2022/06/23 06:58:51;;;;;;;6.15;1.52;;;;;;;-145.69;77.52;70156.94;5072766;28;20297;-79
2022/06/23 07:01:21;;;;;;;9.32;1.65;;;;;;;-145.69;74.12;70123.13;5070623;28;20293;-78
2022/06/23 07:03:49;;;;;;;6.88;1.40;;;;;;;-145.69;76.01;70127.09;5072694;28;20202;-78
2022/06/23 07:06:19;;;;;;;10.02;1.55;;;;;;;-145.69;73.46;70125.09;5072771;28;20206;-79
2022/06/23 07:08:50;;;;;;;10.38;1.58;;;;;;;-145.69;68.51;70137.03;5072779;28;20199;-79
2022/06/23 07:11:22;;;;;;;6.78;1.90;;;;;;;-145.69;69.06;70131.06;5072718;28;20199;-78
2022/06/23 07:13:56;;;;;;;11.48;1.75;;;;;;;-145.69;72.41;70125.09;5072723;28;20195;-78
2022/06/23 07:16:29;;;;;;;7.18;1.50;;;;;;;-145.69;71.30;70101.25;5072529;28;20197;-78
2022/06/23 07:19:01;;;;;;;4.63;1.45;;;;;;;-145.69;71.37;70097.25;5072631;28;20207;-78
2022/06/23 07:21:31;;;;;;;10.80;2.15;;;;;;;-145.69;79.76;70089.31;5072377;28;20198;-77
2022/06/23 07:24:11;;;;;;;7.03;1.60;;;;;;;-145.69;73.63;70097.25;5072385;28;20276;-77
2022/06/23 07:26:45;;;;;;;6.07;1.48;;;;;;;-145.69;70.70;70097.25;5072296;28;20198;-77
2022/06/23 07:29:26;;;;;;;14.70;1.92;;;;;;;-145.69;70.06;70077.38;5072703;28;20203;-78
2022/06/23 07:32:00;;;;;;;6.63;1.63;;;;;;;-145.69;71.64;70081.34;5072502;28;20294;-78
2022/06/23 07:34:28;;;;;;;8.40;1.98;;;;;;;-145.69;73.30;70091.28;5072479;28;20206;-78
2022/06/23 07:36:58;;;;;;;6.82;1.38;;;;;;;-145.69;68.57;70089.31;5071965;28;20209;-77
2022/06/23 07:39:29;;;;;;;12.60;1.60;;;;;;;-145.69;72.67;70057.47;5075605;28;20226;-78
2022/06/23 07:42:02;;;;;;;7.43;1.80;;;;;;;-145.69;64.00;70099.25;5076054;28;20206;-78
2022/06/23 07:44:35;;;;;;;6.30;1.58;;;;;;;-145.69;62.46;70117.16;5075670;28;20684;-78
2022/06/23 07:47:02;;;;;;;7.03;1.60;;;;;;;-145.69;66.63;70117.16;5075798;28;20222;-78
2022/06/23 07:49:31;;;;;;;6.65;1.45;;;;;;;-145.69;64.24;70117.16;5075736;28;20263;-78
2022/06/23 07:51:57;;;;;;;4.88;1.50;;;;;;;-145.69;64.23;70145.00;5075807;28;20202;-78
2022/06/23 07:54:25;;;;;;;5.10;1.63;;;;;;;-145.69;64.17;70150.97;5075919;28;20211;-77
2022/06/23 07:56:52;;;;;;;7.50;1.83;;;;;;;-145.69;67.15;70117.16;5075176;28;20202;-77
2022/06/23 07:59:24;;;;;;;8.73;1.75;;;;;;;-145.69;62.41;70101.25;5058081;28;20227;-78
2022/06/23 08:01:55;;;;;;;9.80;1.77;;;;;;;-145.69;63.23;70117.16;5055693;28;20204;-78
2022/06/23 08:04:28;;;;;;;8.35;1.40;;;;;;;-145.69;64.81;70101.25;5073494;28;20195;-77
2022/06/23 08:06:56;;;;;;;11.30;1.70;;;;;;;-145.69;64.50;70105.22;5075612;28;20199;-78
2022/06/23 08:09:34;;;;;;;4.03;1.50;;;;;;;-145.69;64.61;70117.16;5075456;28;20199;-78
2022/06/23 08:16:49;;;;;;;11.38;1.63;;;;;;;-145.69;65.06;70105.22;5075466;28;20201;-77
2022/06/23 08:17:40;;;;;;;7.25;1.70;;;;;;;-145.69;64.76;70087.31;5075317;28;20209;-77
2022/06/23 08:20:10;;;;;;;7.95;1.77;;;;;;;-145.69;66.05;70087.31;5075299;28;20288;-77
2022/06/23 08:22:39;;;;;;;10.95;2.05;;;;;;;-145.69;78.32;70021.66;5075014;28;20735;-78
2022/06/23 08:25:08;;;;;;;10.88;2.13;;;;;;;-145.69;69.52;70009.72;5075186;28;20202;-77
2022/06/23 08:27:42;;;;;;;10.80;1.88;;;;;;;-145.69;67.43;70007.75;5075408;28;20202;-78
2022/06/23 08:30:12;;;;;;;14.52;2.00;;;;;;;-145.69;65.77;70007.75;5075514;28;20201;-77
2022/06/23 08:32:42;;;;;;;10.73;2.10;;;;;;;-145.69;67.73;70001.78;5075133;28;20198;-77
2022/06/23 08:35:14;;;;;;;8.30;1.92;;;;;;;-145.69;67.75;69969.94;5075151;28;20279;-78
2022/06/23 08:37:50;;;;;;;8.00;1.95;;;;;;;-145.69;64.33;69956.03;5075020;28;20210;-77
2022/06/23 08:40:24;;;;;;;10.90;1.75;;;;;;;-145.69;70.68;69924.19;5075054;28;20692;-78
2022/06/23 08:42:57;;;;;;;8.25;2.28;;;;;;;-145.69;62.29;69920.22;5074697;28;20198;-77
2022/06/23 08:45:41;;;;;;;9.63;2.27;;;;;;;-145.69;62.16;69934.16;5074468;28;20435;-78
2022/06/23 08:48:18;;;;;;;11.32;1.73;;;;;;;-145.69;67.03;69918.22;5074287;28;20206;-79
2022/06/23 08:50:50;;;;;;;9.50;2.10;;;;;;;-145.69;62.75;69912.25;5074340;28;20255;-78
2022/06/23 08:53:24;;;;;;;8.48;1.60;;;;;;;-145.69;66.63;69886.41;5074741;28;20206;-79
2022/06/23 08:55:57;;;;;;;7.18;2.03;;;;;;;-145.69;60.92;69914.25;5074728;28;20195;-79
2022/06/23 08:58:36;;;;;;;9.43;2.25;;;;;;;-145.69;63.58;69886.41;5073835;28;20202;-79
2022/06/23 09:01:09;;;;;;;8.57;1.65;;;;;;;-145.69;58.38;69878.44;5074245;28;20510;-79
2022/06/23 09:03:48;;;;;;;8.48;2.17;;;;;;;-145.69;67.90;69860.53;5074603;28;20203;-79
2022/06/23 09:06:28;;;;;;;11.07;2.30;;;;;;;-145.69;58.05;69880.44;5074445;28;20251;-79
2022/06/23 09:09:05;;;;;;;13.75;2.45;;;;;;;-145.69;63.49;69886.41;5064214;28;20546;-79
2022/06/23 09:11:40;;;;;;;7.18;2.25;;;;;;;-145.69;63.84;69862.53;5074526;28;20209;-79
2022/06/23 09:14:43;;;;;;;10.23;2.45;;;;;;;-145.69;63.93;69864.53;5073993;28;20683;-79
2022/06/23 09:17:25;;;;;;;9.88;2.05;;;;;;;-145.69;62.07;69900.34;5070744;28;20198;-79
2022/06/23 09:20:07;;;;;;;8.75;2.20;;;;;;;-145.69;63.44;69894.38;5073207;28;20457;-79
2022/06/23 09:22:51;;;;;;;11.93;2.47;;;;;;;-145.69;60.89;69904.31;5074095;28;20378;-80
2022/06/23 09:25:26;;;;;;;14.73;2.30;;;;;;;-145.69;58.00;69896.34;5073992;28;20202;-79
2022/06/23 09:28:14;;;;;;;7.78;1.60;;;;;;;-145.69;62.69;69892.38;5074190;28;20202;-79
2022/06/23 09:30:46;;;;;;;8.40;1.27;;;;;;;-145.69;62.17;69892.38;5074062;28;20203;-79
2022/06/23 09:33:24;;;;;;;10.05;2.13;;;;;;;-145.69;57.78;69898.34;5073980;28;20202;-79
2022/06/23 09:36:28;;;;;;;12.75;1.63;;;;;;;-145.69;57.10;69862.53;5073728;28;20206;-79
2022/06/23 09:39:19;;;;;;;9.02;1.77;;;;;;;-145.69;59.88;69900.34;5053939;28;20609;-79
2022/06/23 09:42:15;;;;;;;6.47;1.70;;;;;;;-145.69;62.11;69854.59;5053636;28;20264;-79
2022/06/23 09:45:07;;;;;;;15.75;2.00;;;;;;;-145.69;58.91;69838.66;5053897;28;20206;-79
2022/06/23 09:47:54;;;;;;;10.10;1.50;;;;;;;-145.69;60.43;69834.69;5051922;28;20658;-79
2022/06/23 09:50:38;;;;;;;10.55;1.50;;;;;;;-145.69;59.41;69840.66;5044626;28;20204;-79
2022/06/23 09:53:36;;;;;;;6.97;1.30;;;;;;;-145.69;57.25;69830.72;5053675;28;20198;-79
2022/06/23 09:56:21;;;;;;;11.35;1.80;;;;;;;-145.69;55.80;69820.75;5053540;28;20195;-79
2022/06/23 09:59:02;;;;;;;11.10;2.30;;;;;;;-145.69;55.87;69782.97;5053412;28;20293;-79
2022/06/23 10:01:45;;;;;;;12.32;2.78;;;;;;;-145.69;54.43;69812.81;5052599;28;20227;-79
2022/06/23 10:04:25;;;;;;;16.13;4.25;;;;;;;-145.69;59.54;69810.81;5055915;28;20204;-79
2022/06/23 10:07:09;;;;;;;15.02;3.35;;;;;;;-145.69;58.54;69814.78;5059682;28;20795;-79
2022/06/23 10:09:55;;;;;;;18.23;3.90;;;;;;;-145.69;59.30;69810.81;5073447;28;20624;-80
2022/06/23 10:12:43;;;;;;;17.60;3.05;;;;;;;-145.69;55.52;69792.91;5073219;28;20714;-79
2022/06/23 10:15:24;;;;;;;11.20;2.05;;;;;;;-145.69;63.91;69798.88;5073246;28;20206;-79
2022/06/23 10:18:10;;;;;;;6.50;1.70;;;;;;;-145.69;58.77;69780.97;5073152;28;20206;-79
2022/06/23 10:20:50;;;;;;;12.35;2.38;;;;;;;-145.69;55.57;69763.09;5073229;28;20246;-79
2022/06/23 10:23:30;;;;;;;13.32;2.13;;;;;;;-145.69;52.19;69786.94;5073055;28;20238;-79
2022/06/23 10:26:14;;;;;;;14.70;1.98;;;;;;;-145.69;58.97;69794.91;5072940;28;20542;-79
2022/06/23 10:29:05;;;;;;;15.43;2.20;;;;;;;-145.69;59.15;69767.06;5073157;28;20210;-79
2022/06/23 10:31:46;;;;;;;10.30;2.17;;;;;;;-145.69;57.75;69727.28;5073083;28;20210;-79
2022/06/23 10:34:34;;;;;;;10.23;1.75;;;;;;;-145.69;54.09;69765.06;5072928;28;20199;-79
2022/06/23 10:37:18;;;;;;;10.10;2.30;;;;;;;-145.69;60.31;69749.16;5072853;28;20191;-80
2022/06/23 10:40:02;;;;;;;5.22;1.75;;;;;;;-145.69;56.08;69711.38;5072732;28;20194;-79
2022/06/23 10:42:46;;;;;;;8.63;1.92;;;;;;;-145.69;54.06;69693.47;5072750;28;20202;-79
2022/06/23 10:45:36;;;;;;;12.07;1.95;;;;;;;-145.69;52.65;69699.44;5072791;28;20206;-80
2022/06/23 10:48:26;;;;;;;12.30;1.92;;;;;;;-145.69;54.14;69655.69;5072902;28;20202;-79
2022/06/23 10:51:04;;;;;;;7.60;1.90;;;;;;;-145.69;53.68;69639.75;5061915;28;20206;-80
2022/06/23 10:53:54;;;;;;;12.52;2.17;;;;;;;-145.69;51.90;69637.78;5072790;28;20672;-79
2022/06/23 10:56:53;;;;;;;11.65;2.00;;;;;;;-145.69;51.80;69566.16;5069363;28;20199;-79
2022/06/23 10:59:33;;;;;;;10.73;1.90;;;;;;;-145.69;53.40;69570.16;5072705;28;20221;-80
2022/06/23 11:02:26;;;;;;;11.43;2.22;;;;;;;-145.69;49.33;69532.34;5072705;28;20230;-79
2022/06/23 11:05:12;;;;;;;10.02;1.73;;;;;;;-145.69;50.17;69542.31;5072586;28;20680;-79
2022/06/23 11:07:52;;;;;;;7.55;2.00;;;;;;;-145.69;47.98;69532.34;5072235;28;20652;-80
2022/06/23 11:10:33;;;;;;;11.75;1.83;;;;;;;-145.69;48.96;69494.56;5072709;28;20229;-79
2022/06/23 11:13:10;;;;;;;12.63;2.05;;;;;;;-145.69;50.79;69504.50;5073026;28;20438;-79
2022/06/23 11:15:46;;;;;;;10.95;1.80;;;;;;;-145.69;52.14;69520.44;5076614;28;20351;-80
2022/06/23 11:18:30;;;;;;;6.90;1.48;;;;;;;-145.69;49.61;69522.41;5076784;28;20267;-79
2022/06/23 11:21:12;;;;;;;8.73;1.92;;;;;;;-145.69;47.21;69548.28;5076702;28;20237;-79
2022/06/23 11:23:49;;;;;;;6.35;1.58;;;;;;;-145.69;47.18;69516.44;5076179;28;20774;-79
2022/06/23 11:26:28;;;;;;;9.38;2.00;;;;;;;-145.69;47.75;69508.50;5076275;28;20199;-79
2022/06/23 11:29:09;;;;;;;9.90;1.63;;;;;;;-145.69;46.03;69474.69;5076478;28;20285;-80
2022/06/23 11:31:42;;;;;;;9.68;1.83;;;;;;;-145.69;43.91;69460.75;5076384;28;20289;-79
2022/06/23 11:34:34;;;;;;;13.52;1.65;;;;;;;-145.69;46.10;69424.97;5076216;28;20214;-79
2022/06/23 11:37:20;;;;;;;13.43;1.83;;;;;;;-145.69;44.41;69434.91;5076127;28;20218;-79
2022/06/23 11:40:10;;;;;;;7.70;1.88;;;;;;;-145.69;46.94;69444.84;5076224;28;20226;-79
2022/06/23 11:43:01;;;;;;;11.35;2.05;;;;;;;-145.69;46.36;69395.13;5076010;28;20289;-79
2022/06/23 11:45:43;;;;;;;10.93;2.00;;;;;;;-145.69;54.28;69333.47;5076135;28;20203;-79
2022/06/23 11:48:25;;;;;;;20.23;2.38;;;;;;;-145.69;43.81;69353.34;5076070;28;20252;-79
2022/06/23 11:51:03;;;;;;;9.45;1.85;;;;;;;-145.69;43.04;69349.38;5075971;28;20207;-80
2022/06/23 11:53:43;;;;;;;10.52;2.08;;;;;;;-145.69;48.79;69297.69;5075798;28;20198;-79
2022/06/23 11:56:23;;;;;;;8.95;1.70;;;;;;;-145.69;44.12;69281.75;5075883;28;20553;-79